Terminal Aerodrome Forecast
Issued by NWS

Current Version | Previous Version | Graphics & Text | Print | Product List | Glossary On
Versions: 1 2 3 4 5 6 7 8 9 10 11 12 13 14 15 16 17 18 19 20 21 22 23 24 25 26 27 28 29 30 31 32 33 34 35 36 37 38 39 40
000
FTUS41 KRNK 271425 AAA
TAFLWB
TAF AMD
KLWB 271425Z 2714/2812 25005KT P6SM SHRA VCTS SCT030CB BKN050
     FM271600 24005KT P6SM -SHRA BKN060
     FM272000 25007KT 4SM SHRA BR VCTS SCT040CB OVC080
      TEMPO 2720/2722 2SM +TSRA BR OVC020CB
     FM280400 00000KT 5SM BR VCTS BKN040CB
     FM280600 00000KT 3SM SHRA BR VCTS OVC020CB=

USA.gov is the U.S. government's official web portal to all federal, state and local government web resources and services.